createdAt,value
2018-03-24T00:00:20.072Z,40.90
2018-03-24T00:02:49.626Z,40.90
2018-03-24T00:05:18.700Z,41.50
2018-03-24T00:07:47.849Z,40.70
2018-03-24T00:10:17.056Z,40.20
2018-03-24T00:12:46.993Z,40.70
2018-03-24T00:15:15.870Z,39.70
2018-03-24T00:17:44.875Z,39.90
2018-03-24T00:20:14.072Z,40.00
2018-03-24T00:22:43.055Z,40.00
2018-03-24T00:25:12.937Z,39.10
2018-03-24T00:27:42.014Z,39.10
2018-03-24T00:30:11.557Z,39.00
2018-03-24T00:32:40.857Z,39.40
2018-03-24T00:35:10.281Z,39.40
2018-03-24T00:37:39.652Z,39.40
2018-03-24T00:40:09.744Z,40.20
2018-03-24T00:42:39.178Z,40.30
2018-03-24T00:45:08.492Z,40.50
2018-03-24T00:47:37.798Z,40.60
2018-03-24T00:50:06.811Z,40.70
2018-03-24T00:52:36.311Z,41.50
2018-03-24T00:55:04.945Z,41.50
2018-03-24T00:57:34.839Z,41.80
2018-03-24T01:00:04.391Z,41.80
2018-03-24T01:02:33.554Z,41.60
2018-03-24T01:05:02.791Z,42.10
2018-03-24T01:07:32.367Z,41.90
2018-03-24T01:10:03.343Z,41.50
2018-03-24T01:12:32.500Z,41.60
2018-03-24T01:15:01.663Z,41.60
2018-03-24T01:17:30.164Z,41.80
2018-03-24T01:19:59.328Z,41.90
2018-03-24T01:22:29.063Z,41.60
2018-03-24T01:24:58.227Z,41.60
2018-03-24T01:27:26.542Z,41.60
2018-03-24T01:29:54.843Z,41.50
2018-03-24T01:32:23.250Z,41.60
2018-03-24T01:34:51.600Z,41.50
2018-03-24T01:37:19.949Z,41.60
2018-03-24T01:39:48.271Z,40.60
2018-03-24T01:42:16.574Z,40.60
2018-03-24T01:44:44.868Z,39.90
2018-03-24T01:47:13.583Z,39.10
2018-03-24T01:49:41.880Z,39.10
2018-03-24T01:52:10.170Z,39.30
2018-03-24T01:54:38.496Z,39.40
2018-03-24T01:57:06.848Z,39.00
2018-03-24T01:59:35.124Z,39.10
2018-03-24T02:02:03.863Z,39.10
2018-03-24T02:04:32.148Z,39.10
2018-03-24T02:07:00.431Z,39.60
2018-03-24T02:09:28.760Z,39.70
2018-03-24T02:11:57.448Z,40.30
2018-03-24T02:14:25.735Z,40.30
2018-03-24T02:16:54.053Z,40.30
2018-03-24T02:19:22.363Z,40.70
2018-03-24T02:21:51.063Z,41.00
2018-03-24T02:24:19.793Z,41.30
2018-03-24T02:26:48.094Z,41.30
2018-03-24T02:29:16.452Z,41.20
2018-03-24T02:31:45.060Z,41.20
2018-03-24T02:34:13.921Z,41.30
2018-03-24T02:36:42.204Z,41.00
2018-03-24T02:39:10.628Z,41.20
2018-03-24T02:41:39.311Z,41.00
2018-03-24T02:44:07.999Z,41.20
2018-03-24T02:46:36.799Z,41.00
2018-03-24T02:49:05.478Z,41.30
2018-03-24T02:51:33.786Z,41.30
2018-03-24T02:54:02.412Z,41.20
2018-03-24T02:56:30.713Z,41.20
2018-03-24T02:58:59.388Z,41.20
2018-03-24T03:01:28.366Z,41.20
2018-03-24T03:03:56.708Z,41.20
2018-03-24T03:06:25.007Z,41.00
2018-03-24T03:08:53.327Z,41.00
2018-03-24T03:11:22.007Z,40.90
2018-03-24T03:13:50.691Z,41.00
2018-03-24T03:16:19.015Z,41.00
2018-03-24T03:18:47.324Z,41.00
2018-03-24T03:21:15.624Z,41.00
2018-03-24T03:23:44.594Z,40.90
2018-03-24T03:26:13.346Z,40.90
2018-03-24T03:28:41.740Z,40.90
2018-03-24T03:31:10.036Z,41.00
2018-03-24T03:33:38.316Z,40.90
2018-03-24T03:36:06.604Z,40.70
2018-03-24T03:38:35.680Z,40.60
2018-03-24T03:41:04.815Z,40.70
2018-03-24T03:43:33.096Z,40.70
2018-03-24T03:46:01.739Z,40.70
2018-03-24T03:48:30.816Z,40.70
2018-03-24T03:50:59.106Z,40.90
2018-03-24T03:53:27.436Z,40.90
2018-03-24T03:55:55.968Z,40.60
2018-03-24T03:58:24.662Z,40.60
2018-03-24T04:00:52.975Z,40.60
2018-03-24T04:03:21.275Z,40.50
2018-03-24T04:05:49.572Z,40.60
2018-03-24T04:08:18.166Z,40.70
2018-03-24T04:10:46.452Z,40.90
2018-03-24T04:13:15.027Z,41.00
2018-03-24T04:15:43.355Z,40.90
2018-03-24T04:18:12.138Z,40.90
2018-03-24T04:20:40.525Z,40.70
2018-03-24T04:23:08.834Z,40.60
2018-03-24T04:25:37.213Z,40.50
2018-03-24T04:28:05.525Z,40.60
2018-03-24T04:30:33.837Z,40.70
2018-03-24T04:33:02.138Z,41.00
2018-03-24T04:35:30.740Z,41.30
2018-03-24T04:37:59.324Z,41.50
2018-03-24T04:40:27.915Z,41.50
2018-03-24T04:42:56.219Z,41.50
2018-03-24T04:45:24.536Z,41.50
2018-03-24T04:47:52.831Z,41.50
2018-03-24T04:50:21.166Z,41.60
2018-03-24T04:52:49.451Z,41.60
2018-03-24T04:55:17.758Z,41.50
2018-03-24T04:57:46.081Z,41.50
2018-03-24T05:00:14.476Z,41.30
2018-03-24T05:02:42.766Z,41.20
2018-03-24T05:05:11.073Z,41.00
2018-03-24T05:07:39.779Z,41.20
2018-03-24T05:10:08.467Z,41.20
2018-03-24T05:12:37.175Z,41.50
2018-03-24T05:15:05.463Z,41.50
2018-03-24T05:17:33.743Z,41.50
2018-03-24T05:20:02.127Z,41.50
2018-03-24T05:22:30.441Z,41.30
2018-03-24T05:24:58.724Z,41.20
2018-03-24T05:27:27.725Z,41.30
2018-03-24T05:29:56.400Z,41.60
2018-03-24T05:32:24.784Z,41.60
2018-03-24T05:34:53.140Z,41.90
2018-03-24T05:37:21.429Z,41.90
2018-03-24T05:39:49.813Z,42.10
2018-03-24T05:42:18.092Z,42.20
2018-03-24T05:44:46.373Z,41.90
2018-03-24T05:47:14.692Z,41.80
2018-03-24T05:49:42.985Z,41.60
2018-03-24T05:52:11.279Z,41.80
2018-03-24T05:54:39.583Z,41.50
2018-03-24T05:57:08.264Z,41.20
2018-03-24T05:59:36.837Z,41.20
2018-03-24T06:02:05.122Z,40.70
2018-03-24T06:04:33.472Z,40.60
2018-03-24T06:07:02.063Z,40.70
2018-03-24T06:09:30.381Z,40.70
2018-03-24T06:11:58.778Z,40.90
2018-03-24T06:14:27.135Z,41.20
2018-03-24T06:16:55.449Z,41.20
2018-03-24T06:19:23.739Z,41.00
2018-03-24T06:21:52.057Z,41.00
2018-03-24T06:24:20.748Z,40.70
2018-03-24T06:26:49.070Z,40.70
2018-03-24T06:29:18.248Z,40.90
2018-03-24T06:31:51.496Z,40.70
2018-03-24T06:34:20.233Z,40.90
2018-03-24T06:36:48.522Z,40.90
2018-03-24T06:39:16.823Z,41.20
2018-03-24T06:41:45.221Z,41.50
2018-03-24T06:44:13.511Z,41.20
2018-03-24T06:46:42.188Z,40.90
2018-03-24T06:49:10.515Z,40.90
2018-03-24T06:51:38.860Z,40.90
2018-03-24T06:54:07.215Z,41.00
2018-03-24T06:56:35.991Z,43.00
2018-03-24T06:59:04.280Z,43.10
2018-03-24T07:01:33.006Z,42.40
2018-03-24T07:04:01.312Z,42.40
2018-03-24T07:06:29.612Z,43.00
2018-03-24T07:08:57.970Z,42.80
2018-03-24T07:11:26.416Z,42.10
2018-03-24T07:13:54.778Z,42.20
2018-03-24T07:16:23.152Z,41.90
2018-03-24T07:18:51.466Z,41.90
2018-03-24T07:21:19.867Z,40.90
2018-03-24T07:23:48.462Z,40.30
2018-03-24T07:26:16.783Z,40.00
2018-03-24T07:28:45.079Z,39.90
2018-03-24T07:31:13.379Z,39.40
2018-03-24T07:33:41.711Z,38.80
2018-03-24T07:36:10.017Z,38.50
2018-03-24T07:38:38.320Z,39.00
2018-03-24T07:41:06.611Z,39.00
2018-03-24T07:43:34.924Z,38.80
2018-03-24T07:46:03.237Z,38.80
2018-03-24T07:48:31.846Z,39.00
2018-03-24T07:51:00.126Z,38.50
2018-03-24T07:53:28.856Z,38.40
2018-03-24T07:55:58.304Z,38.40
2018-03-24T07:58:28.040Z,38.20
2018-03-24T08:00:56.535Z,38.40
2018-03-24T08:03:24.848Z,37.80
2018-03-24T08:05:53.140Z,37.60
2018-03-24T08:08:21.430Z,37.90
2018-03-24T08:10:49.785Z,37.40
2018-03-24T08:13:18.095Z,36.90
2018-03-24T08:15:46.784Z,36.60
2018-03-24T08:18:15.126Z,36.60
2018-03-24T08:20:43.725Z,36.60
2018-03-24T08:23:12.895Z,37.80
2018-03-24T08:25:41.178Z,37.80
2018-03-24T08:28:09.562Z,37.80
2018-03-24T08:30:38.159Z,37.50
2018-03-24T08:33:06.748Z,37.20
2018-03-24T08:35:35.087Z,37.50
2018-03-24T08:38:03.423Z,37.20
2018-03-24T08:40:31.713Z,36.90
2018-03-24T08:43:00.016Z,36.80
2018-03-24T08:45:28.348Z,36.30
2018-03-24T08:47:57.026Z,36.60
2018-03-24T08:50:25.998Z,36.20
2018-03-24T08:52:54.296Z,36.20
2018-03-24T08:55:22.618Z,36.00
2018-03-24T08:57:50.949Z,35.70
2018-03-24T09:00:19.605Z,35.90
2018-03-24T09:02:48.929Z,35.40
2018-03-24T09:05:17.675Z,35.30
2018-03-24T09:07:46.009Z,34.80
2018-03-24T09:12:49.212Z,34.80
2018-03-24T09:15:17.544Z,34.50
2018-03-24T09:17:45.885Z,34.20
2018-03-24T09:20:14.184Z,34.80
2018-03-24T09:22:42.708Z,34.40
2018-03-24T09:25:11.003Z,34.40
2018-03-24T09:27:39.699Z,34.20
2018-03-24T09:30:08.439Z,34.40
2018-03-24T09:32:36.753Z,34.40
2018-03-24T09:35:05.445Z,34.10
2018-03-24T09:37:34.115Z,34.40
2018-03-24T09:40:02.437Z,34.40
2018-03-24T09:42:30.748Z,34.40
2018-03-24T09:44:59.018Z,34.00
2018-03-24T09:47:28.545Z,33.80
2018-03-24T09:49:56.830Z,33.20
2018-03-24T09:52:25.113Z,33.20
2018-03-24T09:54:53.849Z,32.90
2018-03-24T09:57:22.162Z,32.80
2018-03-24T09:59:50.464Z,32.30
2018-03-24T10:02:18.764Z,32.00
2018-03-24T10:04:47.069Z,31.70
2018-03-24T10:07:15.352Z,32.30
2018-03-24T10:09:43.681Z,32.60
2018-03-24T10:12:12.633Z,31.90
2018-03-24T10:14:40.918Z,31.90
2018-03-24T10:17:09.255Z,32.30
2018-03-24T10:19:37.545Z,31.90
2018-03-24T10:25:18.422Z,32.20
2018-03-24T10:27:47.040Z,31.90
2018-03-24T10:30:15.335Z,31.30
2018-03-24T10:32:44.007Z,31.70
2018-03-24T10:35:12.387Z,31.70
2018-03-24T10:37:48.161Z,47.00
2018-03-24T10:40:16.857Z,49.20
2018-03-24T10:42:51.132Z,49.20
2018-03-24T10:45:19.465Z,43.70
2018-03-24T10:47:47.770Z,44.00
2018-03-24T10:50:16.055Z,40.70
2018-03-24T10:52:44.655Z,38.80
2018-03-24T10:55:13.008Z,36.50
2018-03-24T10:57:41.290Z,35.90
2018-03-24T11:00:09.615Z,36.80
2018-03-24T11:02:38.980Z,35.70
2018-03-24T11:05:07.297Z,37.60
2018-03-24T11:07:35.714Z,37.40
2018-03-24T11:10:04.020Z,37.50
2018-03-24T11:12:32.317Z,38.50
2018-03-24T11:15:01.614Z,33.20
2018-03-24T11:17:31.144Z,38.80
2018-03-24T11:20:00.184Z,38.80
2018-03-24T11:22:29.216Z,31.60
2018-03-24T11:24:57.916Z,32.30
2018-03-24T11:27:28.031Z,32.30
2018-03-24T11:29:57.675Z,29.10
2018-03-24T11:32:25.955Z,33.70
2018-03-24T11:34:54.237Z,33.10
2018-03-24T11:37:22.725Z,29.90
2018-03-24T11:39:51.008Z,30.60
2018-03-24T11:42:19.366Z,28.10
2018-03-24T11:44:48.087Z,32.50
2018-03-24T11:47:16.766Z,30.10
2018-03-24T11:49:45.072Z,30.10
2018-03-24T11:52:13.453Z,29.80
2018-03-24T11:54:44.089Z,30.60
2018-03-24T11:57:12.828Z,29.20
2018-03-24T11:59:41.131Z,33.20
2018-03-24T12:02:09.441Z,32.60
2018-03-24T12:04:37.768Z,30.40
2018-03-24T12:07:06.236Z,37.50
2018-03-24T12:09:34.845Z,31.30
2018-03-24T12:12:04.004Z,36.90
2018-03-24T12:14:33.072Z,39.30
2018-03-24T12:17:01.383Z,33.10
2018-03-24T12:19:30.043Z,33.70
2018-03-24T12:21:58.399Z,39.30
2018-03-24T12:24:27.062Z,38.10
2018-03-24T12:26:55.353Z,35.90
2018-03-24T12:29:23.759Z,32.20
2018-03-24T12:31:52.084Z,33.70
2018-03-24T12:34:20.780Z,32.30
2018-03-24T12:36:49.460Z,29.70
2018-03-24T12:39:18.545Z,28.70
2018-03-24T12:41:46.869Z,28.70
2018-03-24T12:44:15.218Z,29.20
2018-03-24T12:46:43.789Z,28.90
2018-03-24T12:49:12.071Z,29.10
2018-03-24T12:51:40.806Z,29.00
2018-03-24T12:54:09.099Z,29.00
2018-03-24T12:56:37.820Z,29.10
2018-03-24T12:59:06.590Z,28.90
2018-03-24T13:01:34.876Z,28.90
2018-03-24T13:04:04.061Z,27.80
2018-03-24T13:06:33.091Z,26.30
2018-03-24T13:09:01.647Z,27.10
2018-03-24T13:11:29.937Z,26.20
2018-03-24T13:13:58.651Z,26.10
2018-03-24T13:16:27.187Z,26.10
2018-03-24T13:18:55.976Z,25.60
2018-03-24T13:21:24.990Z,26.20
2018-03-24T13:23:53.330Z,26.20
2018-03-24T13:26:22.124Z,25.70
2018-03-24T13:28:50.422Z,25.70
2018-03-24T13:31:19.388Z,25.80
2018-03-24T13:33:47.688Z,26.00
2018-03-24T13:36:15.981Z,25.70
2018-03-24T13:38:44.685Z,26.00
2018-03-24T13:41:13.044Z,25.90
2018-03-24T13:43:41.700Z,24.30
2018-03-24T13:46:09.984Z,23.90
2018-03-24T13:48:38.326Z,23.80
2018-03-24T13:51:07.551Z,22.40
2018-03-24T13:53:35.850Z,22.40
2018-03-24T13:56:04.548Z,22.50
2018-03-24T13:58:33.232Z,23.90
2018-03-24T14:01:02.480Z,24.80
2018-03-24T14:03:30.853Z,24.80
2018-03-24T14:05:59.918Z,24.90
2018-03-24T14:08:28.459Z,24.90
2018-03-24T14:10:56.746Z,24.70
2018-03-24T14:13:25.425Z,24.30
2018-03-24T14:15:53.748Z,24.30
2018-03-24T14:18:22.216Z,25.00
2018-03-24T14:20:50.512Z,24.70
2018-03-24T14:23:18.861Z,22.50
2018-03-24T14:25:47.151Z,22.80
2018-03-24T14:28:15.437Z,23.90
2018-03-24T14:30:43.773Z,21.90
2018-03-24T14:33:12.634Z,25.10
2018-03-24T14:35:40.921Z,25.10
2018-03-24T14:38:09.252Z,24.90
2018-03-24T14:40:37.562Z,24.90
2018-03-24T14:43:05.853Z,24.60
2018-03-24T14:45:34.259Z,24.00
2018-03-24T14:48:02.571Z,23.80
2018-03-24T14:50:30.859Z,23.80
2018-03-24T14:52:59.372Z,23.70
2018-03-24T14:55:27.684Z,23.30
2018-03-24T14:57:56.353Z,22.90
2018-03-24T15:00:25.323Z,23.10
2018-03-24T15:02:53.662Z,23.00
2018-03-24T15:05:22.184Z,23.00
2018-03-24T15:07:50.487Z,22.90
2018-03-24T15:10:19.232Z,22.80
2018-03-24T15:12:47.523Z,22.80
2018-03-24T15:15:15.806Z,23.20
2018-03-24T15:17:44.161Z,23.00
2018-03-24T15:20:12.483Z,22.90
2018-03-24T15:22:41.979Z,22.90
2018-03-24T15:25:10.659Z,23.00
2018-03-24T15:27:38.989Z,23.00
2018-03-24T15:30:19.121Z,23.00
2018-03-24T15:32:53.465Z,22.90
2018-03-24T15:35:29.525Z,23.00
2018-03-24T15:37:57.814Z,23.30
2018-03-24T15:40:26.412Z,23.20
2018-03-24T15:42:54.728Z,23.30
2018-03-24T15:45:23.014Z,23.50
2018-03-24T15:47:51.341Z,23.70
2018-03-24T15:50:19.639Z,23.40
2018-03-24T15:52:48.345Z,23.60
2018-03-24T15:55:16.677Z,23.70
2018-03-24T15:57:45.008Z,23.90
2018-03-24T16:00:13.316Z,24.00
2018-03-24T16:02:41.590Z,24.10
2018-03-24T16:05:09.931Z,24.30
2018-03-24T16:07:38.333Z,24.40
2018-03-24T16:10:06.625Z,24.50
2018-03-24T16:12:34.932Z,24.90
2018-03-24T16:15:03.736Z,25.10
2018-03-24T16:17:32.423Z,25.20
2018-03-24T16:20:02.053Z,25.30
2018-03-24T16:22:30.338Z,25.30
2018-03-24T16:24:58.719Z,25.30
2018-03-24T16:27:27.018Z,25.40
2018-03-24T16:29:55.320Z,25.40
2018-03-24T16:32:24.024Z,25.60
2018-03-24T16:34:52.991Z,25.60
2018-03-24T16:37:21.502Z,25.60
2018-03-24T16:39:50.085Z,25.80
2018-03-24T16:42:19.720Z,25.90
2018-03-24T16:44:48.003Z,26.00
2018-03-24T16:47:16.335Z,26.00
2018-03-24T16:49:45.020Z,26.20
2018-03-24T16:52:13.739Z,26.30
2018-03-24T16:54:42.055Z,26.30
2018-03-24T16:57:10.428Z,26.40
2018-03-24T16:59:38.710Z,26.40
2018-03-24T17:02:07.144Z,26.60
2018-03-24T17:04:35.656Z,26.60
2018-03-24T17:07:03.975Z,26.80
2018-03-24T17:09:32.687Z,26.90
2018-03-24T17:12:01.008Z,26.90
2018-03-24T17:14:29.338Z,27.40
2018-03-24T17:16:57.679Z,28.10
2018-03-24T17:19:26.398Z,28.20
2018-03-24T17:21:57.809Z,28.20
2018-03-24T17:24:27.088Z,30.80
2018-03-24T17:26:55.655Z,30.80
2018-03-24T17:29:23.942Z,31.90
2018-03-24T17:31:52.643Z,31.30
2018-03-24T17:34:20.926Z,30.60
2018-03-24T17:36:49.215Z,29.90
2018-03-24T17:39:18.107Z,29.40
2018-03-24T17:41:46.398Z,29.40
2018-03-24T17:44:15.072Z,29.20
2018-03-24T17:46:43.899Z,29.20
2018-03-24T17:49:12.188Z,29.20
2018-03-24T17:51:40.475Z,29.20
2018-03-24T17:54:08.801Z,29.10
2018-03-24T17:56:37.154Z,29.20
2018-03-24T17:59:05.854Z,29.30
2018-03-24T18:01:34.616Z,29.30
2018-03-24T18:04:03.349Z,29.30
2018-03-24T18:06:32.103Z,29.30
2018-03-24T18:09:00.454Z,29.30
2018-03-24T18:11:28.743Z,29.30
2018-03-24T18:13:57.040Z,29.40
2018-03-24T18:16:25.362Z,29.40
2018-03-24T18:18:53.682Z,29.40
2018-03-24T18:21:21.985Z,29.40
2018-03-24T18:23:50.750Z,29.40
2018-03-24T18:26:21.104Z,29.50
2018-03-24T18:28:49.467Z,29.40
2018-03-24T18:31:17.753Z,29.50
2018-03-24T18:33:46.656Z,30.10
2018-03-24T18:36:15.095Z,46.40
2018-03-24T18:38:43.419Z,45.30
2018-03-24T18:41:11.761Z,44.10
2018-03-24T18:43:40.063Z,41.60
2018-03-24T18:46:08.431Z,36.00
2018-03-24T18:48:36.711Z,35.60
2018-03-24T18:51:05.478Z,34.00
2018-03-24T18:53:33.876Z,33.80
2018-03-24T18:56:02.550Z,33.10
2018-03-24T18:58:31.746Z,33.10
2018-03-24T19:01:00.515Z,32.80
2018-03-24T19:03:28.800Z,32.30
2018-03-24T19:05:57.099Z,32.20
2018-03-24T19:08:25.787Z,31.90
2018-03-24T19:10:54.521Z,32.30
2018-03-24T19:13:22.819Z,32.30
2018-03-24T19:15:51.118Z,32.20
2018-03-24T19:18:20.573Z,31.70
2018-03-24T19:20:48.890Z,31.70
2018-03-24T19:23:17.215Z,31.60
2018-03-24T19:25:45.973Z,31.40
2018-03-24T19:28:14.666Z,31.40
2018-03-24T19:30:43.019Z,31.40
2018-03-24T19:33:11.300Z,31.40
2018-03-24T19:35:39.672Z,31.40
2018-03-24T19:38:07.979Z,31.40
2018-03-24T19:40:36.811Z,31.30
2018-03-24T19:43:05.543Z,31.30
2018-03-24T19:45:34.314Z,31.30
2018-03-24T19:48:02.603Z,31.30
2018-03-24T19:50:31.375Z,31.10
2018-03-24T19:52:59.984Z,31.10
2018-03-24T19:55:28.739Z,30.80
2018-03-24T19:57:57.027Z,30.80
2018-03-24T20:00:25.350Z,30.80
2018-03-24T20:02:54.224Z,30.80
2018-03-24T20:05:22.507Z,30.80
2018-03-24T20:07:50.825Z,30.80
2018-03-24T20:10:19.113Z,30.80
2018-03-24T20:12:47.703Z,30.80
2018-03-24T20:15:15.984Z,30.80
2018-03-24T20:17:44.364Z,30.80
2018-03-24T20:20:12.674Z,30.80
2018-03-24T20:22:41.356Z,30.80
2018-03-24T20:25:10.242Z,30.80
2018-03-24T20:27:38.790Z,30.80
2018-03-24T20:30:07.123Z,30.80
2018-03-24T20:32:35.429Z,30.80
2018-03-24T20:35:04.572Z,30.80
2018-03-24T20:37:33.587Z,30.80
2018-03-24T20:40:01.884Z,31.00
2018-03-24T20:42:30.168Z,31.00
2018-03-24T20:44:58.481Z,31.00
2018-03-24T20:47:27.162Z,31.00
2018-03-24T20:49:55.441Z,31.00
2018-03-24T20:52:23.729Z,31.00
2018-03-24T20:54:52.441Z,31.00
2018-03-24T20:57:20.847Z,31.00
2018-03-24T20:59:50.894Z,31.00
2018-03-24T21:02:19.469Z,31.00
2018-03-24T21:04:47.910Z,31.00
2018-03-24T21:07:17.378Z,30.80
2018-03-24T21:09:47.474Z,30.80
2018-03-24T21:12:18.066Z,30.80
2018-03-24T21:14:47.058Z,30.80
2018-03-24T21:17:16.880Z,30.80
2018-03-24T21:19:45.450Z,30.80
2018-03-24T21:22:15.134Z,31.00
2018-03-24T21:24:43.539Z,31.10
2018-03-24T21:27:11.956Z,32.60
2018-03-24T21:29:40.763Z,32.30
2018-03-24T21:32:09.539Z,32.30
2018-03-24T21:34:38.376Z,31.90
2018-03-24T21:37:06.968Z,31.90
2018-03-24T21:39:35.342Z,31.70
2018-03-24T21:42:03.620Z,56.00
2018-03-24T21:44:32.007Z,54.50
2018-03-24T21:47:00.331Z,53.60
2018-03-24T21:49:28.611Z,52.90
2018-03-24T21:51:57.295Z,50.20
2018-03-24T21:54:25.594Z,50.20
2018-03-24T21:56:53.884Z,49.30
2018-03-24T21:59:22.191Z,48.90
2018-03-24T22:01:50.480Z,48.60
2018-03-24T22:04:19.415Z,42.80
2018-03-24T22:06:48.074Z,41.50
2018-03-24T22:09:16.643Z,41.50
2018-03-24T22:11:45.363Z,46.20
2018-03-24T22:14:14.418Z,46.20
2018-03-24T22:16:42.687Z,42.50
2018-03-24T22:19:10.995Z,42.20
2018-03-24T22:21:39.284Z,42.10
2018-03-24T22:24:07.944Z,48.00
2018-03-24T22:26:36.242Z,47.80
2018-03-24T22:29:05.207Z,47.40
2018-03-24T22:31:33.554Z,47.40
2018-03-24T22:34:02.174Z,47.10
2018-03-24T22:36:31.472Z,46.10
2018-03-24T22:39:01.048Z,44.40
2018-03-24T22:41:30.936Z,41.80
2018-03-24T22:44:00.781Z,41.90
2018-03-24T22:46:29.388Z,40.70
2018-03-24T22:48:58.996Z,40.00
2018-03-24T22:51:29.049Z,39.40
2018-03-24T22:53:57.492Z,39.30
2018-03-24T22:56:25.838Z,39.00
2018-03-24T22:58:54.127Z,38.70
2018-03-24T23:01:23.045Z,38.70
2018-03-24T23:03:52.041Z,38.20
2018-03-24T23:06:20.938Z,37.60
2018-03-24T23:08:49.694Z,37.60
2018-03-24T23:11:18.011Z,37.60
2018-03-24T23:13:46.580Z,37.50
2018-03-24T23:16:14.883Z,37.40
2018-03-24T23:18:43.211Z,37.20
2018-03-24T23:21:11.515Z,37.10
2018-03-24T23:23:42.977Z,36.90
2018-03-24T23:26:11.915Z,36.90
2018-03-24T23:28:40.712Z,36.90
2018-03-24T23:31:08.974Z,36.80
2018-03-24T23:33:37.261Z,36.60
2018-03-24T23:36:05.553Z,36.60
2018-03-24T23:38:33.829Z,36.50
2018-03-24T23:41:02.514Z,36.30
2018-03-24T23:43:30.803Z,36.30
2018-03-24T23:45:59.072Z,36.20
2018-03-24T23:48:27.433Z,36.20
2018-03-24T23:50:56.031Z,36.00
2018-03-24T23:53:24.295Z,36.00
2018-03-24T23:55:52.578Z,35.90
2018-03-24T23:58:20.863Z,35.90
